createdAt,value
2023-05-25T00:00:13.927Z,187.00
2023-05-25T00:02:40.920Z,124.45
2023-05-25T00:05:09.198Z,151.88
2023-05-25T00:07:36.080Z,123.38
2023-05-25T00:10:03.929Z,121.85
2023-05-25T00:12:30.646Z,134.40
2023-05-25T00:14:57.615Z,121.95
2023-05-25T00:17:24.604Z,130.00
2023-05-25T00:19:51.774Z,124.75
2023-05-25T00:22:18.768Z,201.70
2023-05-25T00:24:45.721Z,148.38
2023-05-25T00:27:12.342Z,127.75
2023-05-25T00:29:39.259Z,132.85
2023-05-25T00:32:07.991Z,154.95
2023-05-25T00:34:36.229Z,127.78
2023-05-25T00:37:03.167Z,122.57
2023-05-25T00:39:30.599Z,122.85
2023-05-25T00:41:58.048Z,135.77
2023-05-25T00:44:25.094Z,123.63
2023-05-25T00:46:53.053Z,125.20
2023-05-25T00:49:22.725Z,116.93
2023-05-25T00:51:49.675Z,153.00
2023-05-25T00:54:17.534Z,115.13
2023-05-25T00:56:53.040Z,125.28
2023-05-25T00:59:35.883Z,113.40
2023-05-25T01:02:06.986Z,157.85
2023-05-25T01:04:36.441Z,130.98
2023-05-25T01:07:04.783Z,125.55
2023-05-25T01:09:34.499Z,120.45
2023-05-25T01:12:02.702Z,192.38
2023-05-25T01:14:29.540Z,114.68
2023-05-25T01:16:59.163Z,140.90
2023-05-25T01:19:25.891Z,114.47
2023-05-25T01:22:05.402Z,146.13
2023-05-25T01:24:40.994Z,117.95
2023-05-25T01:27:28.081Z,117.13
2023-05-25T01:29:55.871Z,121.90
2023-05-25T01:32:22.893Z,134.32
2023-05-25T01:34:50.299Z,114.28
2023-05-25T01:37:19.380Z,237.70
2023-05-25T01:39:46.036Z,118.90
2023-05-25T01:42:12.874Z,153.27
2023-05-25T01:44:39.959Z,118.65
2023-05-25T01:47:33.610Z,128.57
2023-05-25T01:51:13.500Z,137.60
2023-05-25T01:53:45.771Z,118.05
2023-05-25T01:56:13.580Z,127.05
2023-05-25T01:58:45.037Z,124.22
2023-05-25T02:01:14.870Z,142.70
2023-05-25T02:03:42.364Z,120.63
2023-05-25T02:06:09.841Z,134.38
2023-05-25T02:08:36.441Z,123.90
2023-05-25T02:11:03.579Z,205.40
2023-05-25T02:13:30.560Z,127.50
2023-05-25T02:15:57.495Z,210.90
2023-05-25T02:18:24.231Z,113.55
2023-05-25T02:20:54.069Z,133.40
2023-05-25T02:23:20.953Z,116.97
2023-05-25T02:25:47.678Z,163.43
2023-05-25T02:28:15.186Z,206.38
2023-05-25T02:30:42.178Z,115.93
2023-05-25T02:33:08.828Z,147.93
2023-05-25T02:35:35.759Z,116.40
2023-05-25T02:38:02.728Z,138.00
2023-05-25T02:40:29.933Z,113.05
2023-05-25T02:42:56.799Z,137.73
2023-05-25T02:45:23.681Z,116.72
2023-05-25T02:47:50.681Z,200.13
2023-05-25T02:50:19.680Z,139.80
2023-05-25T02:52:49.661Z,139.73
2023-05-25T02:55:18.749Z,147.15
2023-05-25T02:57:45.753Z,202.60
2023-05-25T03:00:23.716Z,113.00
2023-05-25T03:02:50.449Z,176.98
2023-05-25T03:05:19.269Z,132.50
2023-05-25T03:07:48.329Z,175.02
2023-05-25T03:10:16.013Z,130.93
2023-05-25T03:12:43.655Z,185.48
2023-05-25T03:15:13.159Z,156.80
2023-05-25T03:17:40.360Z,113.93
2023-05-25T03:20:08.276Z,154.25
2023-05-25T03:22:35.835Z,112.68
2023-05-25T03:25:03.625Z,115.68
2023-05-25T03:27:30.879Z,110.80
2023-05-25T03:29:57.927Z,112.75
2023-05-25T03:32:24.697Z,119.50
2023-05-25T03:34:51.572Z,120.50
2023-05-25T03:37:18.829Z,110.18
2023-05-25T03:39:45.840Z,118.57
2023-05-25T03:42:12.788Z,116.32
2023-05-25T03:44:41.465Z,113.05
2023-05-25T03:47:09.048Z,118.90
2023-05-25T03:49:35.663Z,111.90
2023-05-25T03:52:02.392Z,126.18
2023-05-25T03:54:29.203Z,113.25
2023-05-25T03:56:56.727Z,124.82
2023-05-25T03:59:25.699Z,112.93
2023-05-25T04:01:52.521Z,125.90
2023-05-25T04:04:19.456Z,114.22
2023-05-25T04:06:48.951Z,122.97
2023-05-25T04:09:15.774Z,114.63
2023-05-25T04:11:42.430Z,115.57
2023-05-25T04:14:09.114Z,117.70
2023-05-25T04:16:41.323Z,113.03
2023-05-25T04:19:09.109Z,123.97
2023-05-25T04:21:36.697Z,117.38
2023-05-25T04:24:03.803Z,125.35
2023-05-25T04:26:31.744Z,118.05
2023-05-25T04:29:01.896Z,134.55
2023-05-25T04:31:45.877Z,127.72
2023-05-25T04:34:36.404Z,120.28
2023-05-25T04:37:09.218Z,143.55
2023-05-25T04:39:36.980Z,123.30
2023-05-25T04:42:05.062Z,157.73
2023-05-25T04:44:33.616Z,120.72
2023-05-25T04:47:03.665Z,184.48
2023-05-25T04:49:34.186Z,124.13
2023-05-25T04:52:01.171Z,154.20
2023-05-25T04:54:29.953Z,121.78
2023-05-25T04:56:59.396Z,142.82
2023-05-25T04:59:26.181Z,128.27
2023-05-25T05:01:53.150Z,128.90
2023-05-25T05:04:20.719Z,138.00
2023-05-25T05:06:47.923Z,138.90
2023-05-25T05:09:20.699Z,142.23
2023-05-25T05:11:48.906Z,125.25
2023-05-25T05:14:15.855Z,141.18
2023-05-25T05:16:45.004Z,128.82
2023-05-25T05:19:12.246Z,133.98
2023-05-25T05:21:39.322Z,126.43
2023-05-25T05:24:07.477Z,131.38
2023-05-25T05:26:44.494Z,126.88
2023-05-25T05:29:21.372Z,159.35
2023-05-25T05:31:48.614Z,124.78
2023-05-25T05:34:15.826Z,139.70
2023-05-25T05:36:56.454Z,132.27
2023-05-25T05:39:24.677Z,131.88
2023-05-25T05:41:51.493Z,132.38
2023-05-25T05:44:24.759Z,172.70
2023-05-25T05:47:01.184Z,129.07
2023-05-25T05:49:29.895Z,136.02
2023-05-25T05:51:58.120Z,127.40
2023-05-25T05:54:25.109Z,140.52
2023-05-25T05:56:52.632Z,128.88
2023-05-25T05:59:21.834Z,146.15
2023-05-25T06:01:48.677Z,133.57
2023-05-25T06:04:16.220Z,139.70
2023-05-25T06:06:43.355Z,139.82
2023-05-25T06:09:10.327Z,164.13
2023-05-25T06:11:40.343Z,132.60
2023-05-25T06:14:08.312Z,143.82
2023-05-25T06:16:36.528Z,141.48
2023-05-25T06:19:03.702Z,150.25
2023-05-25T06:21:30.678Z,136.10
2023-05-25T06:23:57.881Z,131.55
2023-05-25T06:26:24.924Z,142.35
2023-05-25T06:28:52.211Z,138.55
2023-05-25T06:31:19.164Z,140.10
2023-05-25T06:33:46.329Z,144.40
2023-05-25T06:36:15.584Z,139.48
2023-05-25T06:38:43.178Z,141.77
2023-05-25T06:41:12.981Z,146.88
2023-05-25T06:43:39.992Z,141.05
2023-05-25T06:46:18.340Z,164.98
2023-05-25T06:48:46.142Z,141.38
2023-05-25T06:51:13.178Z,148.98
2023-05-25T06:53:40.016Z,139.55
2023-05-25T06:56:06.923Z,142.35
2023-05-25T06:58:33.422Z,155.48
2023-05-25T07:01:01.145Z,140.05
2023-05-25T07:03:27.902Z,181.25
2023-05-25T07:05:54.799Z,145.52
2023-05-25T07:08:21.573Z,158.75
2023-05-25T07:10:50.139Z,141.48
2023-05-25T07:13:17.332Z,155.80
2023-05-25T07:15:44.491Z,144.52
2023-05-25T07:18:12.835Z,149.88
2023-05-25T07:20:42.416Z,147.45
2023-05-25T07:23:12.764Z,145.95
2023-05-25T07:25:41.482Z,147.40
2023-05-25T07:28:09.454Z,156.80
2023-05-25T07:30:36.593Z,144.38
2023-05-25T07:33:03.634Z,162.98
2023-05-25T07:35:30.383Z,156.85
2023-05-25T07:37:58.301Z,236.57
2023-05-25T07:40:25.171Z,148.18
2023-05-25T07:42:51.913Z,191.88
2023-05-25T07:45:18.762Z,245.93
2023-05-25T07:47:45.700Z,167.23
2023-05-25T07:50:13.363Z,219.32
2023-05-25T07:52:40.229Z,159.85
2023-05-25T07:55:08.145Z,180.93
2023-05-25T07:57:35.109Z,170.77
2023-05-25T08:00:03.507Z,161.95
2023-05-25T08:02:39.699Z,166.10
2023-05-25T08:05:06.732Z,178.43
2023-05-25T08:07:33.847Z,174.98
2023-05-25T08:10:00.918Z,176.30
2023-05-25T08:12:45.844Z,218.02
2023-05-25T08:15:14.809Z,220.95
2023-05-25T08:17:42.028Z,185.65
2023-05-25T08:20:09.335Z,230.23
2023-05-25T08:22:36.302Z,185.50
2023-05-25T08:25:04.735Z,183.88
2023-05-25T08:27:32.911Z,184.32
2023-05-25T08:30:02.435Z,174.25
2023-05-25T08:32:29.054Z,206.20
2023-05-25T08:34:55.686Z,175.75
2023-05-25T08:37:23.629Z,176.50
2023-05-25T08:39:50.514Z,214.15
2023-05-25T08:42:17.187Z,179.05
2023-05-25T08:44:43.832Z,196.57
2023-05-25T08:47:12.226Z,177.15
2023-05-25T08:49:39.640Z,194.95
2023-05-25T08:52:11.072Z,171.45
2023-05-25T08:54:40.011Z,249.15
2023-05-25T08:57:15.858Z,188.25
2023-05-25T08:59:42.707Z,227.13
2023-05-25T09:02:29.226Z,218.93
2023-05-25T09:04:56.194Z,222.27
2023-05-25T09:07:24.215Z,213.25
2023-05-25T09:09:51.585Z,224.38
2023-05-25T09:12:18.865Z,212.57
2023-05-25T09:14:48.283Z,219.32
2023-05-25T09:17:16.229Z,199.43
2023-05-25T09:19:43.579Z,202.95
2023-05-25T09:22:16.046Z,185.30
2023-05-25T09:24:45.324Z,196.77
2023-05-25T09:27:13.750Z,183.75
2023-05-25T09:29:40.773Z,240.75
2023-05-25T09:32:08.130Z,195.60
2023-05-25T09:34:35.239Z,217.00
2023-05-25T09:37:11.863Z,203.10
2023-05-25T09:39:40.603Z,267.52
2023-05-25T09:42:07.283Z,199.30
2023-05-25T09:44:34.092Z,209.70
2023-05-25T09:47:01.537Z,177.90
2023-05-25T09:49:28.199Z,190.63
2023-05-25T09:51:55.111Z,199.80
2023-05-25T09:54:23.140Z,193.80
2023-05-25T09:56:50.525Z,221.35
2023-05-25T09:59:17.173Z,221.95
2023-05-25T10:01:45.032Z,217.38
2023-05-25T10:04:12.118Z,231.45
2023-05-25T10:06:40.823Z,251.15
2023-05-25T10:09:09.121Z,271.80
2023-05-25T10:11:36.472Z,249.15
2023-05-25T10:14:07.122Z,226.55
2023-05-25T10:16:34.493Z,223.48
2023-05-25T10:19:04.997Z,202.13
2023-05-25T10:21:32.524Z,183.25
2023-05-25T10:24:32.039Z,222.65
2023-05-25T10:27:10.843Z,214.02
2023-05-25T10:29:48.315Z,212.30
2023-05-25T10:32:16.860Z,210.43
2023-05-25T10:34:43.739Z,216.57
2023-05-25T10:37:11.083Z,204.77
2023-05-25T10:39:38.791Z,210.52
2023-05-25T10:42:06.315Z,220.02
2023-05-25T10:44:33.412Z,221.90
2023-05-25T10:47:00.481Z,233.20
2023-05-25T10:49:34.408Z,224.15
2023-05-25T10:52:01.709Z,212.77
2023-05-25T10:54:31.980Z,213.68
2023-05-25T10:57:20.034Z,224.75
2023-05-25T10:59:51.851Z,217.65
2023-05-25T11:02:24.425Z,246.55
2023-05-25T11:04:51.551Z,255.45
2023-05-25T11:07:19.488Z,240.98
2023-05-25T11:09:58.439Z,249.45
2023-05-25T11:12:26.935Z,234.25
2023-05-25T11:15:10.654Z,230.68
2023-05-25T11:17:57.930Z,226.50
2023-05-25T11:20:27.629Z,223.23
2023-05-25T11:22:54.736Z,260.98
2023-05-25T11:25:38.462Z,278.35
2023-05-25T11:28:08.871Z,260.92
2023-05-25T11:30:35.835Z,234.67
2023-05-25T11:33:08.053Z,231.27
2023-05-25T11:35:39.208Z,215.98
2023-05-25T11:38:07.204Z,228.00
2023-05-25T11:40:35.482Z,232.15
2023-05-25T11:43:04.840Z,251.38
2023-05-25T11:45:34.591Z,245.75
2023-05-25T11:48:01.359Z,247.73
2023-05-25T11:50:28.325Z,272.80
2023-05-25T11:52:55.402Z,284.38
2023-05-25T11:55:22.056Z,338.67
2023-05-25T11:57:56.685Z,294.70
2023-05-25T12:00:28.104Z,274.73
2023-05-25T12:02:55.199Z,231.07
2023-05-25T12:05:23.417Z,251.82
2023-05-25T12:07:50.483Z,217.20
2023-05-25T12:10:17.533Z,258.70
2023-05-25T12:12:49.537Z,204.43
2023-05-25T12:15:25.876Z,244.50
2023-05-25T12:17:54.013Z,191.55
2023-05-25T12:20:21.421Z,263.67
2023-05-25T12:22:48.456Z,174.55
2023-05-25T12:25:19.676Z,219.80
2023-05-25T12:27:46.344Z,192.85
2023-05-25T12:30:13.002Z,203.32
2023-05-25T12:33:02.223Z,280.92
2023-05-25T12:35:33.720Z,254.87
2023-05-25T12:38:20.182Z,209.38
2023-05-25T12:40:47.248Z,229.07
2023-05-25T12:43:14.416Z,239.50
2023-05-25T12:45:44.535Z,261.05
2023-05-25T12:48:11.911Z,354.15
2023-05-25T12:50:38.939Z,319.98
2023-05-25T12:53:06.119Z,339.45
2023-05-25T12:55:35.651Z,350.77
2023-05-25T12:58:05.377Z,344.63
2023-05-25T13:00:38.479Z,324.70
2023-05-25T13:03:07.921Z,344.70
2023-05-25T13:05:37.039Z,304.13
2023-05-25T13:08:05.650Z,303.73
2023-05-25T13:10:33.283Z,300.58
2023-05-25T13:13:00.857Z,282.95
2023-05-25T13:15:28.108Z,250.20
2023-05-25T13:17:56.365Z,247.88
2023-05-25T13:20:25.011Z,226.20
2023-05-25T13:22:53.817Z,285.58
2023-05-25T13:25:22.399Z,267.40
2023-05-25T13:27:51.003Z,248.02
2023-05-25T13:30:17.943Z,274.45
2023-05-25T13:32:45.097Z,236.63
2023-05-25T13:35:32.636Z,259.65
2023-05-25T13:37:59.544Z,241.05
2023-05-25T13:40:26.182Z,235.35
2023-05-25T13:42:52.833Z,231.55
2023-05-25T13:45:19.367Z,311.83
2023-05-25T13:47:46.676Z,277.27
2023-05-25T13:50:13.533Z,357.33
2023-05-25T13:52:40.195Z,273.50
2023-05-25T13:55:07.591Z,333.20
2023-05-25T13:57:34.413Z,327.30
2023-05-25T14:00:01.778Z,370.98
2023-05-25T14:02:29.310Z,348.55
2023-05-25T14:04:57.206Z,470.38
2023-05-25T14:07:23.903Z,515.75
2023-05-25T14:09:50.638Z,390.25
2023-05-25T14:12:17.191Z,338.85
2023-05-25T14:14:49.828Z,310.27
2023-05-25T14:17:16.470Z,341.67
2023-05-25T14:19:43.123Z,291.75
2023-05-25T14:22:14.113Z,320.27
2023-05-25T14:24:41.921Z,391.05
2023-05-25T14:27:08.797Z,428.90
2023-05-25T14:29:35.639Z,407.13
2023-05-25T14:32:02.381Z,448.70
2023-05-25T14:34:29.741Z,437.02
2023-05-25T14:36:56.865Z,407.95
2023-05-25T14:39:23.744Z,398.90
2023-05-25T14:41:50.801Z,381.98
2023-05-25T14:44:19.214Z,370.42
2023-05-25T14:46:46.714Z,365.98
2023-05-25T14:49:13.984Z,334.33
2023-05-25T14:51:41.387Z,365.10
2023-05-25T14:54:08.881Z,351.50
2023-05-25T14:56:35.844Z,351.83
2023-05-25T14:59:02.664Z,370.13
2023-05-25T15:01:29.601Z,376.60
2023-05-25T15:03:57.221Z,384.65
2023-05-25T15:06:23.905Z,391.30
2023-05-25T15:08:50.885Z,425.40
2023-05-25T15:11:18.138Z,391.05
2023-05-25T15:13:44.928Z,363.30
2023-05-25T15:16:12.401Z,345.02
2023-05-25T15:18:39.244Z,325.67
2023-05-25T15:21:06.433Z,290.25
2023-05-25T15:23:33.380Z,339.70
2023-05-25T15:26:05.009Z,325.42
2023-05-25T15:28:31.920Z,337.27
2023-05-25T15:31:01.627Z,316.92
2023-05-25T15:33:40.018Z,323.80
2023-05-25T15:36:16.474Z,367.63
2023-05-25T15:38:44.703Z,321.15
2023-05-25T15:41:14.932Z,305.05
2023-05-25T15:43:42.048Z,291.92
2023-05-25T15:46:09.050Z,300.02
2023-05-25T15:48:35.978Z,287.02
2023-05-25T15:51:02.877Z,277.70
2023-05-25T15:53:30.364Z,313.70
2023-05-25T15:55:58.280Z,268.88
2023-05-25T15:58:24.908Z,276.20
2023-05-25T16:00:51.456Z,262.13
2023-05-25T16:03:18.068Z,278.20
2023-05-25T16:05:45.521Z,261.65
2023-05-25T16:08:13.973Z,278.38
2023-05-25T16:10:40.715Z,284.42
2023-05-25T16:13:07.567Z,307.23
2023-05-25T16:15:34.529Z,266.63
2023-05-25T16:18:01.331Z,316.48
2023-05-25T16:20:27.966Z,261.73
2023-05-25T16:22:54.662Z,289.75
2023-05-25T16:25:21.560Z,277.02
2023-05-25T16:27:48.194Z,258.25
2023-05-25T16:30:14.768Z,279.50
2023-05-25T16:32:41.477Z,249.77
2023-05-25T16:35:08.464Z,287.85
2023-05-25T16:37:35.069Z,253.40
2023-05-25T16:40:01.790Z,266.42
2023-05-25T16:42:28.314Z,245.13
2023-05-25T16:44:55.120Z,268.40
2023-05-25T16:47:21.808Z,250.52
2023-05-25T16:49:48.874Z,250.70
2023-05-25T16:52:15.504Z,240.60
2023-05-25T16:54:42.360Z,230.32
2023-05-25T16:57:12.182Z,256.77
2023-05-25T16:59:39.305Z,239.65
2023-05-25T17:02:06.932Z,238.68
2023-05-25T17:04:33.893Z,234.20
2023-05-25T17:07:00.727Z,246.25
2023-05-25T17:09:27.704Z,273.58
2023-05-25T17:11:59.488Z,228.10
2023-05-25T17:14:26.185Z,264.45
2023-05-25T17:16:52.895Z,233.15
2023-05-25T17:19:19.490Z,249.73
2023-05-25T17:21:46.494Z,230.07
2023-05-25T17:24:13.195Z,251.50
2023-05-25T17:26:39.953Z,232.02
2023-05-25T17:29:06.806Z,230.88
2023-05-25T17:31:33.700Z,254.20
2023-05-25T17:34:00.708Z,241.77
2023-05-25T17:36:28.075Z,252.95
2023-05-25T17:38:54.805Z,219.75
2023-05-25T17:41:22.668Z,232.40
2023-05-25T17:43:49.596Z,224.52
2023-05-25T17:46:17.597Z,227.00
2023-05-25T17:48:44.206Z,225.13
2023-05-25T17:51:11.320Z,235.48
2023-05-25T17:53:38.003Z,219.60
2023-05-25T17:56:05.058Z,221.18
2023-05-25T17:58:32.313Z,240.20
2023-05-25T18:00:59.051Z,226.95
2023-05-25T18:03:25.932Z,239.63
2023-05-25T18:05:52.900Z,223.82
2023-05-25T18:08:19.675Z,243.23
2023-05-25T18:10:47.378Z,235.40
2023-05-25T18:13:14.146Z,280.55
2023-05-25T18:15:41.063Z,219.63
2023-05-25T18:18:08.672Z,220.82
2023-05-25T18:20:35.681Z,232.15
2023-05-25T18:23:04.401Z,213.43
2023-05-25T18:25:31.029Z,226.27
2023-05-25T18:27:57.620Z,212.88
2023-05-25T18:30:24.768Z,235.48
2023-05-25T18:32:51.661Z,213.50
2023-05-25T18:35:18.373Z,272.25
2023-05-25T18:37:44.919Z,231.45
2023-05-25T18:40:13.086Z,233.63
2023-05-25T18:42:39.796Z,228.02
2023-05-25T18:45:07.176Z,270.48
2023-05-25T18:47:34.107Z,204.55
2023-05-25T18:50:01.133Z,236.88
2023-05-25T18:52:28.340Z,201.43
2023-05-25T18:54:55.231Z,204.57
2023-05-25T18:57:21.841Z,204.65
2023-05-25T18:59:48.528Z,206.20
2023-05-25T19:02:15.195Z,210.05
2023-05-25T19:04:41.992Z,209.50
2023-05-25T19:07:08.866Z,230.55
2023-05-25T19:09:35.511Z,198.63
2023-05-25T19:12:02.937Z,213.35
2023-05-25T19:14:29.702Z,189.80
2023-05-25T19:16:56.753Z,240.68
2023-05-25T19:19:23.860Z,175.73
2023-05-25T19:21:51.046Z,191.77
2023-05-25T19:24:20.489Z,197.07
2023-05-25T19:26:49.682Z,189.82
2023-05-25T19:29:16.973Z,184.93
2023-05-25T19:31:44.135Z,175.93
2023-05-25T19:34:10.899Z,181.65
2023-05-25T19:36:37.690Z,182.93
2023-05-25T19:39:04.939Z,180.98
2023-05-25T19:41:31.647Z,171.82
2023-05-25T19:43:58.320Z,196.90
2023-05-25T19:46:25.253Z,174.57
2023-05-25T19:48:52.015Z,185.30
2023-05-25T19:51:18.847Z,156.02
2023-05-25T19:53:48.158Z,189.85
2023-05-25T19:56:14.822Z,163.18
2023-05-25T19:58:41.584Z,183.73
2023-05-25T20:01:08.213Z,159.23
2023-05-25T20:03:35.764Z,169.82
2023-05-25T20:06:02.616Z,157.90
2023-05-25T20:08:29.468Z,151.20
2023-05-25T20:10:56.493Z,156.65
2023-05-25T20:13:23.442Z,157.85
2023-05-25T20:15:50.376Z,158.10
2023-05-25T20:18:18.411Z,167.70
2023-05-25T20:20:45.222Z,157.75
2023-05-25T20:23:11.930Z,177.85
2023-05-25T20:25:38.784Z,145.10
2023-05-25T20:28:05.601Z,158.88
2023-05-25T20:30:32.189Z,142.13
2023-05-25T20:32:59.086Z,158.90
2023-05-25T20:35:25.937Z,145.30
2023-05-25T20:37:52.498Z,152.63
2023-05-25T20:40:19.421Z,163.27
2023-05-25T20:42:45.979Z,168.18
2023-05-25T20:45:12.654Z,171.63
2023-05-25T20:47:43.198Z,180.65
2023-05-25T20:50:10.126Z,167.85
2023-05-25T20:52:36.688Z,178.77
2023-05-25T20:55:03.641Z,140.65
2023-05-25T20:57:30.504Z,175.35
2023-05-25T20:59:59.861Z,149.85
2023-05-25T21:02:28.329Z,141.20
2023-05-25T21:04:56.143Z,152.95
2023-05-25T21:07:23.900Z,140.82
2023-05-25T21:09:50.806Z,143.02
2023-05-25T21:12:17.870Z,152.48
2023-05-25T21:14:44.450Z,144.90
2023-05-25T21:17:11.133Z,153.00
2023-05-25T21:19:38.150Z,141.15
2023-05-25T21:22:04.917Z,159.07
2023-05-25T21:24:31.873Z,145.10
2023-05-25T21:26:58.600Z,142.82
2023-05-25T21:29:25.315Z,146.50
2023-05-25T21:31:52.189Z,140.93
2023-05-25T21:34:19.059Z,141.93
2023-05-25T21:36:45.902Z,141.65
2023-05-25T21:39:12.694Z,151.35
2023-05-25T21:41:41.490Z,139.43
2023-05-25T21:44:08.389Z,195.45
2023-05-25T21:46:35.059Z,142.57
2023-05-25T21:49:01.668Z,144.32
2023-05-25T21:51:29.996Z,133.05
2023-05-25T21:53:56.808Z,145.88
2023-05-25T21:56:23.482Z,146.18
2023-05-25T21:58:50.067Z,140.30
2023-05-25T22:01:17.001Z,146.55
2023-05-25T22:03:44.123Z,138.95
2023-05-25T22:06:10.773Z,139.00
2023-05-25T22:08:37.491Z,152.45
2023-05-25T22:11:04.792Z,140.48
2023-05-25T22:13:31.579Z,178.52
2023-05-25T22:15:58.350Z,135.45
2023-05-25T22:18:25.760Z,144.38
2023-05-25T22:20:52.346Z,133.48
2023-05-25T22:23:19.110Z,156.52
2023-05-25T22:25:46.232Z,139.00
2023-05-25T22:28:14.282Z,133.32
2023-05-25T22:30:42.480Z,138.43
2023-05-25T22:33:09.359Z,133.23
2023-05-25T22:35:36.530Z,141.10
2023-05-25T22:38:03.042Z,176.70
2023-05-25T22:40:30.747Z,127.85
2023-05-25T22:42:57.399Z,169.48
2023-05-25T22:45:24.174Z,133.68
2023-05-25T22:47:50.929Z,138.13
2023-05-25T22:50:17.838Z,151.15
2023-05-25T22:52:44.627Z,128.73
2023-05-25T22:55:11.527Z,174.07
2023-05-25T22:57:38.100Z,133.30
2023-05-25T23:00:05.150Z,169.80
2023-05-25T23:02:31.823Z,137.15
2023-05-25T23:04:58.729Z,137.32
2023-05-25T23:07:25.572Z,131.73
2023-05-25T23:09:52.202Z,164.23
2023-05-25T23:12:18.834Z,131.32
2023-05-25T23:14:45.670Z,159.73
2023-05-25T23:17:12.541Z,130.05
2023-05-25T23:19:40.724Z,140.35
2023-05-25T23:22:07.335Z,134.18
2023-05-25T23:24:34.202Z,131.88
2023-05-25T23:27:00.968Z,134.07
2023-05-25T23:29:27.596Z,127.32
2023-05-25T23:31:55.793Z,135.15
2023-05-25T23:34:22.724Z,128.57
2023-05-25T23:36:49.418Z,139.63
2023-05-25T23:39:16.784Z,128.30
2023-05-25T23:41:43.446Z,192.60
2023-05-25T23:44:10.370Z,128.38
2023-05-25T23:46:37.174Z,153.65
2023-05-25T23:49:04.043Z,135.68
2023-05-25T23:51:31.828Z,125.25
2023-05-25T23:53:58.753Z,162.95
2023-05-25T23:56:27.858Z,127.50
2023-05-25T23:58:54.797Z,137.05
